Time;durP1;ratioP1;P1;durP2;ratioP2;P2;SDS_P1;SDS_P2;PMS_P1;PMS_P2;Temp;Humidity;BMP_temperature;BMP_pressure;BME280_temperature;BME280_humidity;BME280_pressure;Samples;Min_cycle;Max_cycle;Signal;HPM_P1;HPM_P2
2021/12/29 00:01:35;;;;;;;;;;;13.40;99.90;;;;;;5073609;28;19909;-79
2021/12/29 00:04:01;;;;;;;;;;;13.40;99.90;;;;;;5075053;28;19912;-78
2021/12/29 00:06:26;;;;;;;;;;;13.50;99.90;;;;;;5074925;28;19912;-76
2021/12/29 00:08:52;;;;;;;;;;;13.40;99.90;;;;;;5074774;28;19909;-77
2021/12/29 00:11:18;;;;;;;;;;;13.50;99.90;;;;;;5074646;28;19921;-78
2021/12/29 00:13:43;;;;;;;;;;;13.60;99.90;;;;;;5074743;28;19931;-77
2021/12/29 00:16:09;;;;;;;;;;;13.70;99.90;;;;;;5074617;28;20450;-76
2021/12/29 00:18:35;;;;;;;;;;;13.70;99.90;;;;;;5074561;28;19934;-77
2021/12/29 00:21:02;;;;;;;;;;;13.70;99.90;;;;;;5074528;28;19908;-78
2021/12/29 00:23:28;;;;;;;;;;;13.80;99.90;;;;;;5074594;28;19916;-79
2021/12/29 00:25:54;;;;;;;;;;;13.80;99.90;;;;;;5073202;28;19913;-77
2021/12/29 00:28:19;;;;;;;;;;;13.80;99.90;;;;;;5075429;28;19931;-78
2021/12/29 00:30:45;;;;;;;;;;;13.80;99.90;;;;;;5074552;28;19935;-78
2021/12/29 00:33:11;;;;;;;;;;;13.90;99.90;;;;;;5074271;28;19962;-78
2021/12/29 00:35:38;;;;;;;;;;;13.90;99.90;;;;;;5074284;28;19912;-77
2021/12/29 00:38:06;;;;;;;;;;;13.90;99.90;;;;;;5074226;28;19920;-78
2021/12/29 00:40:33;;;;;;;;;;;14.00;99.90;;;;;;5074144;28;19909;-77
2021/12/29 00:42:58;;;;;;;;;;;14.00;99.90;;;;;;5074149;28;19935;-78
2021/12/29 00:45:24;;;;;;;;;;;14.00;99.90;;;;;;5074127;28;19913;-76
2021/12/29 00:47:50;;;;;;;;;;;14.00;99.90;;;;;;5074099;28;19908;-78
2021/12/29 00:50:16;;;;;;;;;;;14.00;99.90;;;;;;5074038;28;19908;-77
2021/12/29 00:52:44;;;;;;;;;;;14.00;99.90;;;;;;5073938;28;19915;-77
2021/12/29 00:55:10;;;;;;;;;;;14.10;99.90;;;;;;5073960;28;19917;-77
2021/12/29 00:57:35;;;;;;;;;;;14.10;99.90;;;;;;5073875;28;19908;-77
2021/12/29 01:00:03;;;;;;;;;;;14.10;99.90;;;;;;5074020;28;19915;-77
2021/12/29 01:02:28;;;;;;;;;;;14.10;99.90;;;;;;5074277;28;20372;-76
2021/12/29 01:04:54;;;;;;;;;;;14.10;99.90;;;;;;5073802;28;19982;-76
2021/12/29 01:07:19;;;;;;;;;;;14.10;99.90;;;;;;5072536;28;19915;-76
2021/12/29 01:09:45;;;;;;;;;;;14.10;99.90;;;;;;5073928;28;19974;-76
2021/12/29 01:12:11;;;;;;;;;;;14.10;99.90;;;;;;5073775;28;19928;-77
2021/12/29 01:14:41;;;;;;;;;;;14.20;99.90;;;;;;5073855;28;19919;-77
2021/12/29 01:17:07;;;;;;;;;;;14.20;99.90;;;;;;5073739;28;19955;-79
2021/12/29 01:19:32;;;;;;;;;;;14.20;99.90;;;;;;5073555;28;20342;-76
2021/12/29 01:21:59;;;;;;;;;;;14.30;99.90;;;;;;5073400;28;19916;-76
2021/12/29 01:24:26;;;;;;;;;;;14.20;99.90;;;;;;5073676;28;19914;-76
2021/12/29 01:26:52;;;;;;;;;;;14.20;99.90;;;;;;5073632;28;19908;-78
2021/12/29 01:29:18;;;;;;;;;;;14.20;99.90;;;;;;5073589;28;20258;-76
2021/12/29 01:31:44;;;;;;;;;;;14.20;99.90;;;;;;5073542;28;19920;-78
2021/12/29 01:34:11;;;;;;;;;;;14.20;99.90;;;;;;5072130;28;19961;-76
2021/12/29 01:36:38;;;;;;;;;;;14.20;99.90;;;;;;5073695;28;19913;-77
2021/12/29 01:39:04;;;;;;;;;;;14.20;99.90;;;;;;5073615;28;19908;-78
2021/12/29 01:41:30;;;;;;;;;;;14.20;99.90;;;;;;5072097;28;19995;-76
2021/12/29 01:43:55;;;;;;;;;;;14.20;99.90;;;;;;5073480;28;19947;-77
2021/12/29 01:46:21;;;;;;;;;;;14.20;99.90;;;;;;5073431;28;19908;-76
2021/12/29 01:48:47;;;;;;;;;;;14.20;99.90;;;;;;5073434;28;19991;-77
2021/12/29 01:51:13;;;;;;;;;;;14.20;99.90;;;;;;5073396;28;19915;-79
2021/12/29 01:53:47;;;;;;;;;;;14.30;99.90;;;;;;5073249;28;19951;-77
2021/12/29 01:56:13;;;;;;;;;;;14.30;99.90;;;;;;5071783;28;19912;-76
2021/12/29 01:58:39;;;;;;;;;;;14.30;99.90;;;;;;5073693;28;19913;-76
2021/12/29 02:01:04;;;;;;;;;;;14.30;99.90;;;;;;5073400;28;19913;-78
2021/12/29 02:03:30;;;;;;;;;;;14.30;99.90;;;;;;5073318;28;19909;-76
2021/12/29 02:05:56;;;;;;;;;;;14.40;99.90;;;;;;5073254;28;20379;-76
2021/12/29 02:08:23;;;;;;;;;;;14.40;99.90;;;;;;5073449;28;19908;-77
2021/12/29 02:10:49;;;;;;;;;;;14.40;99.90;;;;;;5071891;28;20380;-77
2021/12/29 02:13:15;;;;;;;;;;;14.40;99.90;;;;;;5071428;28;19920;-78
2021/12/29 02:15:41;;;;;;;;;;;14.40;99.90;;;;;;5073280;28;19915;-78
2021/12/29 02:18:13;;;;;;;;;;;14.40;99.90;;;;;;5073119;28;19931;-76
2021/12/29 02:20:39;;;;;;;;;;;14.40;99.90;;;;;;5071584;28;19915;-78
2021/12/29 02:23:17;;;;;;;;;;;14.40;99.90;;;;;;5073095;28;19942;-78
2021/12/29 02:25:50;;;;;;;;;;;14.40;99.90;;;;;;5073278;28;20269;-77
2021/12/29 02:28:17;;;;;;;;;;;14.50;99.90;;;;;;5073103;28;19915;-78
2021/12/29 02:30:45;;;;;;;;;;;14.50;99.90;;;;;;5073478;28;20007;-75
2021/12/29 02:33:13;;;;;;;;;;;14.50;99.90;;;;;;5075327;28;20012;-77
2021/12/29 02:35:41;;;;;;;;;;;14.50;99.90;;;;;;5076644;28;20328;-77
2021/12/29 02:38:10;;;;;;;;;;;14.40;99.90;;;;;;5076662;28;19947;-76
2021/12/29 02:40:36;;;;;;;;;;;14.40;99.90;;;;;;5076449;28;19908;-78
2021/12/29 02:43:02;;;;;;;;;;;14.40;99.90;;;;;;5075234;28;19948;-77
2021/12/29 02:45:32;;;;;;;;;;;14.40;99.90;;;;;;5075116;28;19908;-77
2021/12/29 02:47:58;;;;;;;;;;;14.40;99.90;;;;;;5076668;28;19908;-77
2021/12/29 02:50:23;;;;;;;;;;;14.40;99.90;;;;;;5075036;28;19919;-78
2021/12/29 02:52:49;;;;;;;;;;;14.40;99.90;;;;;;5076214;28;20046;-76
2021/12/29 02:55:15;;;;;;;;;;;14.30;99.90;;;;;;5074997;28;19909;-78
2021/12/29 02:57:40;;;;;;;;;;;14.30;99.90;;;;;;5076192;28;19909;-77
2021/12/29 03:00:06;;;;;;;;;;;14.20;99.90;;;;;;5076214;28;19909;-78
2021/12/29 03:02:32;;;;;;;;;;;14.20;99.90;;;;;;5076497;28;19995;-78
2021/12/29 03:04:58;;;;;;;;;;;14.20;99.90;;;;;;5076304;28;19913;-77
2021/12/29 03:07:24;;;;;;;;;;;14.10;99.90;;;;;;5074757;28;19913;-77
2021/12/29 03:09:50;;;;;;;;;;;14.20;99.90;;;;;;5076053;28;19939;-78
2021/12/29 03:12:15;;;;;;;;;;;14.20;99.90;;;;;;5075708;28;20327;-77
2021/12/29 03:14:54;;;;;;;;;;;14.20;99.90;;;;;;5074491;28;20331;-78
2021/12/29 03:17:20;;;;;;;;;;;14.20;99.90;;;;;;5076090;28;19916;-77
2021/12/29 03:19:46;;;;;;;;;;;14.20;99.90;;;;;;5075838;28;19912;-78
2021/12/29 03:22:12;;;;;;;;;;;14.20;99.90;;;;;;5075716;28;19914;-78
2021/12/29 03:24:37;;;;;;;;;;;14.20;99.90;;;;;;5075716;28;19991;-77
2021/12/29 03:27:03;;;;;;;;;;;14.20;99.90;;;;;;5075783;28;19908;-78
2021/12/29 03:29:28;;;;;;;;;;;14.20;99.90;;;;;;5075795;28;19908;-81
2021/12/29 03:31:54;;;;;;;;;;;14.20;99.90;;;;;;5075589;28;19912;-79
2021/12/29 03:34:20;;;;;;;;;;;14.20;99.90;;;;;;5075431;28;19997;-77
2021/12/29 03:36:45;;;;;;;;;;;14.20;99.90;;;;;;5075481;28;19959;-79
2021/12/29 03:39:11;;;;;;;;;;;14.20;99.90;;;;;;5075463;28;19916;-78
2021/12/29 03:41:36;;;;;;;;;;;14.20;99.90;;;;;;5075328;28;19954;-77
2021/12/29 03:44:02;;;;;;;;;;;14.20;99.90;;;;;;5075166;28;19908;-78
2021/12/29 03:46:28;;;;;;;;;;;14.10;99.90;;;;;;5075306;28;19916;-77
2021/12/29 03:48:54;;;;;;;;;;;14.10;99.90;;;;;;5075179;28;19939;-77
2021/12/29 03:51:20;;;;;;;;;;;14.10;99.90;;;;;;5075373;28;19908;-79
2021/12/29 03:53:45;;;;;;;;;;;14.10;99.90;;;;;;5075419;28;19927;-79
2021/12/29 03:56:12;;;;;;;;;;;14.10;99.90;;;;;;5073844;28;19916;-78
2021/12/29 03:58:38;;;;;;;;;;;14.10;99.90;;;;;;5075067;28;20325;-77
2021/12/29 04:01:07;;;;;;;;;;;14.10;99.90;;;;;;5073713;28;20097;-79
2021/12/29 04:03:32;;;;;;;;;;;14.10;99.90;;;;;;5074967;28;19955;-78
2021/12/29 04:05:58;;;;;;;;;;;14.10;99.90;;;;;;5075236;28;20395;-78
2021/12/29 04:08:23;;;;;;;;;;;14.10;99.90;;;;;;5073295;28;19912;-77
2021/12/29 04:10:49;;;;;;;;;;;14.10;99.90;;;;;;5074829;28;19916;-78
2021/12/29 04:13:15;;;;;;;;;;;14.10;99.90;;;;;;5074201;28;19942;-79
2021/12/29 04:15:41;;;;;;;;;;;14.20;99.90;;;;;;5074697;28;19915;-77
2021/12/29 04:18:15;;;;;;;;;;;14.20;99.90;;;;;;5075018;28;19915;-77
2021/12/29 04:21:01;;;;;;;;;;;14.30;99.90;;;;;;5074783;28;19908;-78
2021/12/29 04:23:28;;;;;;;;;;;14.20;99.90;;;;;;5074628;28;20276;-80
2021/12/29 04:25:55;;;;;;;;;;;14.20;99.90;;;;;;5074479;28;19912;-81
2021/12/29 04:28:23;;;;;;;;;;;14.20;99.90;;;;;;5074424;28;19995;-80
2021/12/29 04:30:53;;;;;;;;;;;14.30;99.90;;;;;;5073094;28;20382;-77
2021/12/29 04:33:19;;;;;;;;;;;14.20;99.90;;;;;;5074321;28;19919;-79
2021/12/29 04:35:46;;;;;;;;;;;14.20;99.90;;;;;;5074284;28;20376;-82
2021/12/29 04:38:12;;;;;;;;;;;14.20;99.90;;;;;;5074490;28;19909;-79
2021/12/29 04:40:37;;;;;;;;;;;14.20;99.90;;;;;;5074143;28;19954;-81
2021/12/29 04:43:03;;;;;;;;;;;14.20;99.90;;;;;;5074109;28;19908;-83
2021/12/29 04:45:29;;;;;;;;;;;14.20;99.90;;;;;;5074172;28;19908;-80
2021/12/29 04:47:54;;;;;;;;;;;14.20;99.90;;;;;;5072736;28;19909;-82
2021/12/29 04:50:25;;;;;;;;;;;14.20;99.90;;;;;;5074162;28;19909;-81
2021/12/29 04:52:55;;;;;;;;;;;14.20;99.90;;;;;;5074030;28;19908;-78
2021/12/29 04:55:20;;;;;;;;;;;14.20;99.90;;;;;;5072091;28;19971;-78
2021/12/29 04:57:46;;;;;;;;;;;14.20;99.90;;;;;;5074084;28;19912;-80
2021/12/29 05:00:12;;;;;;;;;;;14.20;99.90;;;;;;5074108;28;19916;-83
2021/12/29 05:02:38;;;;;;;;;;;14.20;99.90;;;;;;5073881;28;19951;-81
2021/12/29 05:05:18;;;;;;;;;;;14.20;99.90;;;;;;5074268;28;19991;-81
2021/12/29 05:10:28;;;;;;;;;;;14.20;99.90;;;;;;5073900;28;19961;-78
2021/12/29 05:12:53;;;;;;;;;;;14.20;99.90;;;;;;5073347;28;20011;-81
2021/12/29 05:15:19;;;;;;;;;;;14.30;99.90;;;;;;5073835;28;20291;-78
2021/12/29 05:17:46;;;;;;;;;;;14.30;99.90;;;;;;5073260;28;20321;-78
2021/12/29 05:20:12;;;;;;;;;;;14.30;99.90;;;;;;5073704;28;19914;-80
2021/12/29 05:22:38;;;;;;;;;;;14.40;99.90;;;;;;5073719;28;19908;-81
2021/12/29 05:25:03;;;;;;;;;;;14.30;99.90;;;;;;5073630;28;19909;-82
2021/12/29 05:27:29;;;;;;;;;;;14.40;99.90;;;;;;5073605;28;19958;-80
2021/12/29 05:29:54;;;;;;;;;;;14.40;99.90;;;;;;5072257;28;19912;-80
2021/12/29 05:32:20;;;;;;;;;;;14.50;99.90;;;;;;5073600;28;19909;-79
2021/12/29 05:34:46;;;;;;;;;;;14.50;99.90;;;;;;5073462;28;19913;-78
2021/12/29 05:37:11;;;;;;;;;;;14.40;99.90;;;;;;5073512;28;19916;-79
2021/12/29 05:39:37;;;;;;;;;;;14.40;99.90;;;;;;5073439;28;20288;-78
2021/12/29 05:42:02;;;;;;;;;;;14.50;99.90;;;;;;5073584;28;19909;-79
2021/12/29 05:44:28;;;;;;;;;;;14.40;99.90;;;;;;5073526;28;19915;-79
2021/12/29 05:46:54;;;;;;;;;;;14.50;99.90;;;;;;5073462;28;20023;-80
2021/12/29 05:49:19;;;;;;;;;;;14.50;99.90;;;;;;5073459;28;19908;-80
2021/12/29 05:51:45;;;;;;;;;;;14.40;99.90;;;;;;5073434;28;19909;-76
2021/12/29 05:54:10;;;;;;;;;;;14.50;99.90;;;;;;5072026;28;19918;-80
2021/12/29 05:56:37;;;;;;;;;;;14.50;99.90;;;;;;5072076;28;19938;-79
2021/12/29 05:59:03;;;;;;;;;;;14.50;99.90;;;;;;5073346;28;19915;-81
2021/12/29 06:01:29;;;;;;;;;;;14.60;99.90;;;;;;5073508;28;19908;-79
2021/12/29 06:03:55;;;;;;;;;;;14.50;99.90;;;;;;5071864;28;20372;-79
2021/12/29 06:06:20;;;;;;;;;;;14.50;99.90;;;;;;5074085;28;19948;-80
2021/12/29 06:08:46;;;;;;;;;;;14.50;99.90;;;;;;5077170;28;19908;-79
2021/12/29 06:11:11;;;;;;;;;;;14.50;99.90;;;;;;5076875;28;20399;-78
2021/12/29 06:13:37;;;;;;;;;;;14.50;99.90;;;;;;5077149;28;20015;-79
2021/12/29 06:16:03;;;;;;;;;;;14.50;99.90;;;;;;5077009;28;20365;-77
2021/12/29 06:18:28;;;;;;;;;;;14.50;99.90;;;;;;5076977;28;20003;-79
2021/12/29 06:20:54;;;;;;;;;;;14.50;99.90;;;;;;5076912;28;19916;-77
2021/12/29 06:23:20;;;;;;;;;;;14.50;99.90;;;;;;5077229;28;19909;-78
2021/12/29 06:25:46;;;;;;;;;;;14.50;99.90;;;;;;5075454;28;19914;-76
2021/12/29 06:28:11;;;;;;;;;;;14.50;99.90;;;;;;5076733;28;20379;-80
2021/12/29 06:30:37;;;;;;;;;;;14.60;99.90;;;;;;5075384;28;19909;-77
2021/12/29 06:33:03;;;;;;;;;;;14.60;99.90;;;;;;5076565;28;19915;-79
2021/12/29 06:35:28;;;;;;;;;;;14.60;99.90;;;;;;5075708;28;19908;-77
2021/12/29 06:37:54;;;;;;;;;;;14.60;99.90;;;;;;5076578;28;20453;-77
2021/12/29 06:40:20;;;;;;;;;;;14.70;99.90;;;;;;5076580;28;19958;-79
2021/12/29 06:42:45;;;;;;;;;;;14.70;99.90;;;;;;5075176;28;20277;-80
2021/12/29 06:45:11;;;;;;;;;;;14.70;99.90;;;;;;5076399;28;19943;-76
2021/12/29 06:47:37;;;;;;;;;;;14.70;99.90;;;;;;5075082;28;20269;-78
2021/12/29 06:50:07;;;;;;;;;;;14.70;99.90;;;;;;5076380;28;19909;-79
2021/12/29 06:52:32;;;;;;;;;;;14.70;99.90;;;;;;5076331;28;19909;-78
2021/12/29 06:54:58;;;;;;;;;;;14.70;99.90;;;;;;5074948;28;19913;-76
2021/12/29 06:57:24;;;;;;;;;;;14.70;99.90;;;;;;5076210;28;19912;-77
2021/12/29 06:59:49;;;;;;;;;;;14.70;99.90;;;;;;5076324;28;19999;-78
2021/12/29 07:02:15;;;;;;;;;;;14.80;99.90;;;;;;5076372;28;20292;-80
2021/12/29 07:04:41;;;;;;;;;;;14.80;99.90;;;;;;5076504;28;19915;-78
2021/12/29 07:07:07;;;;;;;;;;;14.80;99.90;;;;;;5076095;28;19908;-80
2021/12/29 07:09:33;;;;;;;;;;;14.80;99.90;;;;;;5075998;28;19909;-80
2021/12/29 07:11:58;;;;;;;;;;;14.80;99.90;;;;;;5075744;28;19968;-80
2021/12/29 07:14:24;;;;;;;;;;;14.70;99.90;;;;;;5074531;28;19971;-79
2021/12/29 07:16:50;;;;;;;;;;;14.70;99.90;;;;;;5076324;28;19961;-77
2021/12/29 07:19:17;;;;;;;;;;;14.80;99.90;;;;;;5073847;28;19909;-78
2021/12/29 07:21:43;;;;;;;;;;;14.70;99.90;;;;;;5075772;28;19976;-81
2021/12/29 07:24:09;;;;;;;;;;;14.80;99.90;;;;;;5075743;28;19914;-77
2021/12/29 07:26:35;;;;;;;;;;;14.80;99.90;;;;;;5075699;28;20053;-80
2021/12/29 07:29:01;;;;;;;;;;;14.80;99.90;;;;;;5075958;28;19980;-79
2021/12/29 07:31:27;;;;;;;;;;;14.80;99.90;;;;;;5075598;28;19909;-78
2021/12/29 07:33:54;;;;;;;;;;;14.80;99.90;;;;;;5075577;28;19919;-76
2021/12/29 07:36:19;;;;;;;;;;;14.80;99.90;;;;;;5075505;28;20276;-78
2021/12/29 07:38:45;;;;;;;;;;;14.80;99.90;;;;;;5075492;28;19915;-78
2021/12/29 07:41:10;;;;;;;;;;;14.80;99.90;;;;;;5075352;28;19909;-77
2021/12/29 07:43:37;;;;;;;;;;;14.80;99.90;;;;;;5074077;28;19915;-81
2021/12/29 07:46:03;;;;;;;;;;;14.80;99.90;;;;;;5073993;28;19908;-76
2021/12/29 07:48:30;;;;;;;;;;;14.80;99.90;;;;;;5073961;28;19915;-79
2021/12/29 07:50:56;;;;;;;;;;;14.80;99.90;;;;;;5075474;28;19909;-78
2021/12/29 07:53:22;;;;;;;;;;;14.80;99.90;;;;;;5075105;28;19912;-79
2021/12/29 07:55:48;;;;;;;;;;;14.80;99.90;;;;;;5075093;28;19962;-78
2021/12/29 07:58:13;;;;;;;;;;;14.80;99.90;;;;;;5075037;28;19908;-79
2021/12/29 08:00:39;;;;;;;;;;;14.80;99.90;;;;;;5073729;28;19912;-78
2021/12/29 08:03:05;;;;;;;;;;;14.70;99.90;;;;;;5075199;28;19909;-78
2021/12/29 08:05:30;;;;;;;;;;;14.70;99.90;;;;;;5073712;28;19909;-77
2021/12/29 08:07:56;;;;;;;;;;;14.70;99.90;;;;;;5074887;28;19909;-79
2021/12/29 08:10:23;;;;;;;;;;;14.70;99.90;;;;;;5075089;28;20281;-76
2021/12/29 08:12:49;;;;;;;;;;;14.70;99.90;;;;;;5074356;28;20342;-76
2021/12/29 08:15:15;;;;;;;;;;;14.70;99.90;;;;;;5074745;28;20057;-79
2021/12/29 08:17:43;;;;;;;;;;;14.60;99.90;;;;;;5074719;28;19908;-77
2021/12/29 08:20:09;;;;;;;;;;;14.60;99.90;;;;;;5073301;28;19916;-76
2021/12/29 08:22:34;;;;;;;;;;;14.50;99.90;;;;;;5074573;28;19912;-80
2021/12/29 08:25:00;;;;;;;;;;;14.50;99.90;;;;;;5074496;28;19982;-78
2021/12/29 08:27:26;;;;;;;;;;;14.50;99.90;;;;;;5074451;28;19908;-79
2021/12/29 08:29:51;;;;;;;;;;;14.50;99.90;;;;;;5073494;28;19932;-78
2021/12/29 08:32:17;;;;;;;;;;;14.50;99.90;;;;;;5074794;28;19908;-77
2021/12/29 08:34:42;;;;;;;;;;;14.50;99.90;;;;;;5074392;28;20250;-78
2021/12/29 08:37:08;;;;;;;;;;;14.50;99.90;;;;;;5074313;28;20446;-79
2021/12/29 08:39:34;;;;;;;;;;;14.60;99.90;;;;;;5074131;28;19912;-78
2021/12/29 08:41:59;;;;;;;;;;;14.60;99.90;;;;;;5074218;28;19909;-79
2021/12/29 08:44:25;;;;;;;;;;;14.60;99.90;;;;;;5074187;28;19915;-78
2021/12/29 08:46:51;;;;;;;;;;;14.60;99.90;;;;;;5074129;28;20392;-79
2021/12/29 08:49:16;;;;;;;;;;;14.60;99.90;;;;;;5074097;28;19916;-77
2021/12/29 08:51:42;;;;;;;;;;;14.70;99.90;;;;;;5074070;28;20365;-79
2021/12/29 08:54:08;;;;;;;;;;;14.70;99.90;;;;;;5073983;28;20360;-76
2021/12/29 08:56:34;;;;;;;;;;;14.70;99.90;;;;;;5074167;28;20278;-80
2021/12/29 08:58:59;;;;;;;;;;;14.70;99.90;;;;;;5072644;28;20389;-79
2021/12/29 09:01:25;;;;;;;;;;;14.80;99.90;;;;;;5073959;28;19948;-77
2021/12/29 09:03:51;;;;;;;;;;;14.80;99.90;;;;;;5074351;28;19908;-77
2021/12/29 09:06:17;;;;;;;;;;;14.70;99.90;;;;;;5074123;28;20388;-76
2021/12/29 09:08:43;;;;;;;;;;;14.80;99.90;;;;;;5073871;28;19908;-77
2021/12/29 09:11:11;;;;;;;;;;;14.80;99.90;;;;;;5073624;28;19962;-78
2021/12/29 09:13:36;;;;;;;;;;;14.90;99.90;;;;;;5072202;28;19957;-78
2021/12/29 09:16:03;;;;;;;;;;;14.90;99.90;;;;;;5073967;28;20321;-77
2021/12/29 09:18:29;;;;;;;;;;;14.80;99.90;;;;;;5073818;28;19908;-79
2021/12/29 09:20:58;;;;;;;;;;;14.80;99.90;;;;;;5073821;28;20033;-77
2021/12/29 09:23:24;;;;;;;;;;;14.90;99.90;;;;;;5073751;28;20369;-78
2021/12/29 09:25:49;;;;;;;;;;;14.90;99.90;;;;;;5073707;28;19909;-78
2021/12/29 09:28:17;;;;;;;;;;;14.90;99.90;;;;;;5073640;28;19970;-77
2021/12/29 09:30:44;;;;;;;;;;;14.90;99.90;;;;;;5073603;28;20007;-77
2021/12/29 09:33:10;;;;;;;;;;;14.90;99.90;;;;;;5073534;28;20372;-78
2021/12/29 09:35:36;;;;;;;;;;;15.00;99.90;;;;;;5073674;28;19954;-78
2021/12/29 09:38:03;;;;;;;;;;;14.90;99.90;;;;;;5073557;28;19931;-76
2021/12/29 09:40:28;;;;;;;;;;;15.00;99.90;;;;;;5072137;28;19909;-78
2021/12/29 09:42:55;;;;;;;;;;;15.00;99.90;;;;;;5077478;28;20437;-78
2021/12/29 09:45:21;;;;;;;;;;;15.00;99.90;;;;;;5076323;28;19908;-78
2021/12/29 09:47:47;;;;;;;;;;;15.10;99.90;;;;;;5076305;28;19909;-78
2021/12/29 09:50:14;;;;;;;;;;;15.20;99.90;;;;;;5077533;28;19940;-78
2021/12/29 09:52:40;;;;;;;;;;;15.30;99.90;;;;;;5077479;28;19908;-77
2021/12/29 09:55:09;;;;;;;;;;;15.50;99.90;;;;;;5077639;28;20364;-76
2021/12/29 09:57:35;;;;;;;;;;;15.40;99.90;;;;;;5076088;28;19934;-77
2021/12/29 10:00:03;;;;;;;;;;;15.30;99.90;;;;;;5077352;28;19909;-81
2021/12/29 10:02:29;;;;;;;;;;;15.30;99.90;;;;;;5077319;28;20300;-78
2021/12/29 10:04:56;;;;;;;;;;;15.30;99.90;;;;;;5077234;28;19913;-77
2021/12/29 10:07:22;;;;;;;;;;;15.30;99.90;;;;;;5075943;28;19952;-77
2021/12/29 10:09:48;;;;;;;;;;;15.20;99.90;;;;;;5077113;28;19916;-79
2021/12/29 10:12:21;;;;;;;;;;;15.20;99.90;;;;;;5076855;28;20399;-79
2021/12/29 10:14:58;;;;;;;;;;;15.20;99.90;;;;;;5077452;28;19912;-76
2021/12/29 10:17:27;;;;;;;;;;;15.10;99.90;;;;;;5077040;28;20000;-78
2021/12/29 10:20:25;;;;;;;;;;;15.10;99.90;;;;;;5077371;28;19908;-77
2021/12/29 10:22:57;;;;;;;;;;;15.20;99.90;;;;;;5043006;28;19908;-80
2021/12/29 10:25:24;;;;;;;;;;;15.10;99.90;;;;;;5076853;28;19914;-77
2021/12/29 10:27:51;;;;;;;;;;;15.20;99.90;;;;;;5076806;28;20448;-77
2021/12/29 10:30:28;;;;;;;;;;;15.10;99.90;;;;;;5075501;28;19909;-78
2021/12/29 10:32:58;;;;;;;;;;;15.10;99.90;;;;;;5077107;28;20335;-77
2021/12/29 10:35:27;;;;;;;;;;;15.20;99.90;;;;;;5075103;28;20008;-79
2021/12/29 10:37:54;;;;;;;;;;;15.20;99.90;;;;;;5075321;28;20361;-78
2021/12/29 10:40:27;;;;;;;;;;;15.20;99.90;;;;;;5075166;28;19908;-78
2021/12/29 10:42:57;;;;;;;;;;;15.30;99.90;;;;;;5076543;28;19958;-78
2021/12/29 10:45:30;;;;;;;;;;;15.30;99.90;;;;;;5076535;28;20376;-77
2021/12/29 10:47:56;;;;;;;;;;;15.40;99.90;;;;;;5076679;28;19916;-79
2021/12/29 10:50:22;;;;;;;;;;;15.40;99.90;;;;;;5076488;28;19909;-79
2021/12/29 10:52:53;;;;;;;;;;;15.50;99.90;;;;;;5075212;28;20442;-77
2021/12/29 10:55:22;;;;;;;;;;;15.60;99.90;;;;;;5076206;28;19965;-77
2021/12/29 10:58:00;;;;;;;;;;;15.60;99.90;;;;;;5076248;28;19909;-77
2021/12/29 11:00:25;;;;;;;;;;;15.50;99.90;;;;;;5076340;28;19934;-77
2021/12/29 11:02:52;;;;;;;;;;;15.50;99.90;;;;;;5076327;28;19908;-78
2021/12/29 11:05:18;;;;;;;;;;;15.40;99.90;;;;;;5076157;28;19909;-78
2021/12/29 11:07:43;;;;;;;;;;;15.40;99.90;;;;;;5076106;28;20053;-76
2021/12/29 11:10:18;;;;;;;;;;;15.40;99.90;;;;;;5076181;28;19920;-78
2021/12/29 11:12:47;;;;;;;;;;;15.50;99.90;;;;;;5075949;28;19920;-78
2021/12/29 11:15:19;;;;;;;;;;;15.50;99.90;;;;;;5075893;28;19912;-77
2021/12/29 11:17:45;;;;;;;;;;;15.50;99.90;;;;;;5075876;28;19913;-77
2021/12/29 11:20:16;;;;;;;;;;;15.50;99.90;;;;;;5075858;28;19915;-77
2021/12/29 11:22:41;;;;;;;;;;;15.60;99.90;;;;;;5075919;28;19908;-78
2021/12/29 11:25:07;;;;;;;;;;;15.60;99.90;;;;;;5075776;28;19931;-78
2021/12/29 11:27:35;;;;;;;;;;;15.60;99.90;;;;;;5075722;28;19962;-77
2021/12/29 11:30:02;;;;;;;;;;;15.70;99.90;;;;;;5075759;28;19955;-77
2021/12/29 11:32:30;;;;;;;;;;;15.80;99.90;;;;;;5075650;28;19909;-78
2021/12/29 11:35:07;;;;;;;;;;;15.80;99.90;;;;;;5075594;28;19912;-78
2021/12/29 11:37:33;;;;;;;;;;;15.80;99.90;;;;;;5074027;28;19909;-77
2021/12/29 11:39:59;;;;;;;;;;;15.80;99.90;;;;;;5075400;28;20261;-79
2021/12/29 11:42:25;;;;;;;;;;;15.80;99.90;;;;;;5074148;28;19920;-77
2021/12/29 11:44:50;;;;;;;;;;;15.80;99.90;;;;;;5075374;28;19916;-79
2021/12/29 11:47:16;;;;;;;;;;;15.80;99.90;;;;;;5075501;28;19908;-77
2021/12/29 11:49:42;;;;;;;;;;;15.80;99.90;;;;;;5075232;28;19915;-77
2021/12/29 11:52:08;;;;;;;;;;;15.70;99.90;;;;;;5075378;28;19918;-76
2021/12/29 11:54:37;;;;;;;;;;;15.70;99.90;;;;;;5075165;28;19912;-77
2021/12/29 11:57:18;;;;;;;;;;;15.60;99.90;;;;;;5075624;28;19908;-76
2021/12/29 11:59:43;;;;;;;;;;;15.70;99.90;;;;;;5075260;28;19931;-77
2021/12/29 12:02:09;;;;;;;;;;;15.60;99.90;;;;;;5075034;28;20288;-77
2021/12/29 12:04:36;;;;;;;;;;;15.60;99.90;;;;;;5074931;28;20283;-76
2021/12/29 12:07:07;;;;;;;;;;;15.70;99.90;;;;;;5074945;28;19948;-77
2021/12/29 12:09:49;;;;;;;;;;;15.60;99.90;;;;;;5075283;28;20424;-78
2021/12/29 12:12:15;;;;;;;;;;;15.70;99.90;;;;;;5074613;28;20293;-77
2021/12/29 12:14:46;;;;;;;;;;;15.80;99.90;;;;;;5074918;28;19955;-77
2021/12/29 12:17:21;;;;;;;;;;;15.70;99.90;;;;;;5074671;28;19915;-76
2021/12/29 12:19:57;;;;;;;;;;;15.80;99.90;;;;;;5075143;28;20284;-77
2021/12/29 12:22:23;;;;;;;;;;;15.70;99.90;;;;;;5074923;28;19916;-78
2021/12/29 12:24:52;;;;;;;;;;;15.70;99.90;;;;;;5074614;28;19909;-76
2021/12/29 12:27:35;;;;;;;;;;;15.80;99.90;;;;;;5074479;28;19915;-76
2021/12/29 12:30:06;;;;;;;;;;;15.90;99.90;;;;;;5074470;28;19909;-78
2021/12/29 12:32:40;;;;;;;;;;;16.00;99.90;;;;;;5074622;28;20281;-78
2021/12/29 12:35:06;;;;;;;;;;;16.00;99.90;;;;;;5074250;28;20404;-77
2021/12/29 12:37:34;;;;;;;;;;;16.00;99.90;;;;;;5072990;28;19958;-76
2021/12/29 12:40:05;;;;;;;;;;;15.80;99.90;;;;;;5074436;28;20280;-78
2021/12/29 12:42:30;;;;;;;;;;;15.80;99.90;;;;;;5072911;28;20319;-76
2021/12/29 12:44:57;;;;;;;;;;;15.80;99.90;;;;;;5072904;28;19908;-78
2021/12/29 12:47:27;;;;;;;;;;;15.80;99.90;;;;;;5074155;28;19916;-77
2021/12/29 12:49:53;;;;;;;;;;;15.70;99.90;;;;;;5074071;28;19959;-76
2021/12/29 12:52:20;;;;;;;;;;;15.70;99.90;;;;;;5074265;28;19958;-76
2021/12/29 12:54:53;;;;;;;;;;;15.60;99.90;;;;;;5073901;28;19920;-78
2021/12/29 12:57:34;;;;;;;;;;;15.60;99.90;;;;;;5074012;28;19909;-78
2021/12/29 13:00:08;;;;;;;;;;;15.50;99.90;;;;;;5073987;28;19908;-77
2021/12/29 13:02:37;;;;;;;;;;;15.60;99.90;;;;;;5073927;28;19908;-78
2021/12/29 13:05:05;;;;;;;;;;;15.70;99.90;;;;;;5073862;28;19909;-77
2021/12/29 13:07:31;;;;;;;;;;;15.70;99.90;;;;;;5073861;28;19908;-76
2021/12/29 13:09:56;;;;;;;;;;;15.70;99.90;;;;;;5073847;28;19908;-77
2021/12/29 13:12:26;;;;;;;;;;;15.70;99.90;;;;;;5073711;28;19921;-78
2021/12/29 13:14:57;;;;;;;;;;;15.60;99.90;;;;;;5073722;28;20007;-79
2021/12/29 13:17:22;;;;;;;;;;;15.60;99.90;;;;;;5073464;28;19994;-77
2021/12/29 13:19:48;;;;;;;;;;;15.70;99.90;;;;;;5073829;28;20367;-75
2021/12/29 13:22:28;;;;;;;;;;;15.70;99.90;;;;;;5072382;28;19954;-75
2021/12/29 13:24:53;;;;;;;;;;;15.90;99.90;;;;;;5072331;28;19934;-76
2021/12/29 13:27:22;;;;;;;;;;;15.90;99.90;;;;;;5073824;28;19916;-76
2021/12/29 13:29:58;;;;;;;;;;;16.10;99.90;;;;;;5072348;28;19909;-77
2021/12/29 13:32:24;;;;;;;;;;;16.00;99.90;;;;;;5074021;28;20280;-78
2021/12/29 13:35:01;;;;;;;;;;;16.00;99.90;;;;;;5073562;28;19999;-76
2021/12/29 13:37:27;;;;;;;;;;;16.00;99.90;;;;;;5073609;28;19951;-76
2021/12/29 13:39:53;;;;;;;;;;;16.00;99.90;;;;;;5073471;28;19909;-76
2021/12/29 13:42:19;;;;;;;;;;;15.90;99.90;;;;;;5073500;28;19916;-77
2021/12/29 13:44:44;;;;;;;;;;;15.90;99.90;;;;;;5073666;28;20398;-77
2021/12/29 13:47:10;;;;;;;;;;;15.80;99.90;;;;;;5073477;28;19908;-77
2021/12/29 13:49:35;;;;;;;;;;;15.80;99.90;;;;;;5073414;28;19916;-77
2021/12/29 13:52:02;;;;;;;;;;;15.70;99.90;;;;;;5073530;28;20007;-77
2021/12/29 13:54:29;;;;;;;;;;;15.60;99.90;;;;;;5073249;28;19912;-79
2021/12/29 13:56:55;;;;;;;;;;;15.70;99.90;;;;;;5073369;28;20388;-76
2021/12/29 13:59:23;;;;;;;;;;;15.70;99.90;;;;;;5073566;28;19909;-77
2021/12/29 14:01:51;;;;;;;;;;;15.60;99.90;;;;;;5073419;28;19932;-76
2021/12/29 14:04:19;;;;;;;;;;;15.60;99.90;;;;;;5072014;28;19908;-76
2021/12/29 14:06:45;;;;;;;;;;;15.60;99.90;;;;;;5071998;28;19913;-76
2021/12/29 14:09:12;;;;;;;;;;;15.70;99.90;;;;;;5073399;28;19909;-77
2021/12/29 14:11:38;;;;;;;;;;;15.60;99.90;;;;;;5073242;28;19921;-76
2021/12/29 14:14:11;;;;;;;;;;;15.50;99.90;;;;;;5073205;28;19917;-77
2021/12/29 14:16:46;;;;;;;;;;;15.50;99.90;;;;;;5073320;28;19908;-77
2021/12/29 14:19:14;;;;;;;;;;;15.50;99.90;;;;;;5073064;28;19908;-78